createdAt,value
2023-04-10T00:00:39.052Z,6.26
2023-04-10T00:05:56.951Z,6.28
2023-04-10T00:11:01.351Z,6.30
2023-04-10T00:16:07.201Z,6.32
2023-04-10T00:21:11.674Z,6.35
2023-04-10T00:26:16.163Z,6.38
2023-04-10T00:31:20.832Z,6.42
2023-04-10T00:36:25.536Z,6.35
2023-04-10T00:41:30.267Z,6.25
2023-04-10T00:46:35.636Z,6.18
2023-04-10T00:51:41.676Z,6.18
2023-04-10T00:56:47.146Z,6.24
2023-04-10T01:01:51.725Z,6.33
2023-04-10T01:07:04.246Z,6.41
2023-04-10T01:12:25.750Z,6.43
2023-04-10T01:17:35.808Z,6.32
2023-04-10T01:22:58.813Z,6.27
2023-04-10T01:28:14.243Z,6.23
2023-04-10T01:33:21.843Z,6.19
2023-04-10T01:38:29.826Z,6.14
2023-04-10T01:43:35.931Z,6.12
2023-04-10T01:48:40.968Z,6.10
2023-04-10T01:53:46.199Z,6.04
2023-04-10T01:58:50.938Z,5.98
2023-04-10T02:03:56.015Z,5.96
2023-04-10T02:09:10.848Z,5.96
2023-04-10T02:14:20.697Z,6.00
2023-04-10T02:19:27.616Z,6.00
2023-04-10T02:24:33.683Z,6.01
2023-04-10T02:29:38.224Z,6.01
2023-04-10T02:34:43.471Z,6.02
2023-04-10T02:39:47.956Z,6.04
2023-04-10T02:44:52.117Z,6.04
2023-04-10T02:49:57.053Z,6.04
2023-04-10T02:55:01.141Z,6.03
2023-04-10T03:00:07.850Z,6.03
2023-04-10T03:05:12.357Z,6.02
2023-04-10T03:10:17.315Z,6.08
2023-04-10T03:15:22.338Z,6.13
2023-04-10T03:20:27.464Z,6.16
2023-04-10T03:25:31.959Z,6.17
2023-04-10T03:30:36.748Z,6.18
2023-04-10T03:35:40.877Z,6.19
2023-04-10T03:40:45.233Z,6.21
2023-04-10T03:45:49.547Z,6.25
2023-04-10T03:50:53.923Z,6.29
2023-04-10T03:55:58.315Z,6.29
2023-04-10T04:01:02.958Z,6.30
2023-04-10T04:06:08.632Z,6.31
2023-04-10T04:11:12.473Z,6.32
2023-04-10T04:16:17.332Z,6.33
2023-04-10T04:21:21.827Z,6.31
2023-04-10T04:26:26.632Z,6.29
2023-04-10T04:31:32.049Z,6.28
2023-04-10T04:36:36.297Z,6.29
2023-04-10T04:41:40.375Z,6.29
2023-04-10T04:46:44.829Z,6.29
2023-04-10T04:51:49.604Z,6.30
2023-04-10T04:56:54.011Z,6.33
2023-04-10T05:01:58.889Z,6.34
2023-04-10T05:07:03.223Z,6.33
2023-04-10T05:12:07.662Z,6.30
2023-04-10T05:17:11.614Z,6.27
2023-04-10T05:22:16.908Z,6.22
2023-04-10T05:27:23.419Z,6.17
2023-04-10T05:32:27.526Z,6.18
2023-04-10T05:37:31.393Z,6.24
2023-04-10T05:42:35.623Z,6.28
2023-04-10T05:47:39.822Z,6.30
2023-04-10T05:52:43.748Z,6.28
2023-04-10T05:57:47.770Z,6.28
2023-04-10T06:02:51.844Z,6.32
2023-04-10T06:07:58.162Z,6.36
2023-04-10T06:13:02.918Z,6.40
2023-04-10T06:18:07.178Z,6.44
2023-04-10T06:23:12.709Z,6.50
2023-04-10T06:28:16.789Z,6.57
2023-04-10T06:33:21.461Z,6.60
2023-04-10T06:38:25.797Z,6.64
2023-04-10T06:43:31.351Z,6.70
2023-04-10T06:48:35.797Z,6.78
2023-04-10T06:53:39.976Z,6.85
2023-04-10T06:58:44.138Z,6.87
2023-04-10T07:03:49.096Z,6.93
2023-04-10T07:08:53.899Z,7.05
2023-04-10T07:13:58.577Z,7.13
2023-04-10T07:19:03.269Z,7.18
2023-04-10T07:24:07.828Z,7.25
2023-04-10T07:29:11.809Z,7.36
2023-04-10T07:34:16.039Z,7.42
2023-04-10T07:39:20.638Z,7.40
2023-04-10T07:44:28.236Z,7.38
2023-04-10T07:49:32.575Z,7.37
2023-04-10T07:54:37.243Z,7.44
2023-04-10T07:59:41.378Z,7.51
2023-04-10T08:04:45.528Z,7.60
2023-04-10T08:09:49.910Z,7.81
2023-04-10T08:14:54.534Z,7.99
2023-04-10T08:19:58.684Z,8.10
2023-04-10T08:25:02.936Z,8.15
2023-04-10T08:30:09.517Z,8.16
2023-04-10T08:35:13.959Z,8.24
2023-04-10T08:40:18.368Z,8.33
2023-04-10T08:45:23.207Z,8.49
2023-04-10T08:50:29.597Z,8.58
2023-04-10T08:55:34.361Z,8.64
2023-04-10T09:00:39.066Z,8.69
2023-04-10T09:05:42.981Z,8.67
2023-04-10T09:10:47.765Z,8.65
2023-04-10T09:15:59.956Z,8.73
2023-04-10T09:21:09.539Z,8.89
2023-04-10T09:26:27.892Z,9.00
2023-04-10T09:31:34.816Z,9.06
2023-04-10T09:36:40.990Z,9.18
2023-04-10T09:41:52.468Z,9.32
2023-04-10T09:46:57.271Z,9.44
2023-04-10T09:52:17.486Z,9.53
2023-04-10T09:57:24.216Z,9.62
2023-04-10T10:02:31.230Z,9.75
2023-04-10T10:07:36.759Z,9.85
2023-04-10T10:12:48.087Z,9.87
2023-04-10T10:18:03.984Z,9.95
2023-04-10T10:23:08.657Z,10.00
2023-04-10T10:28:14.197Z,10.11
2023-04-10T10:33:18.599Z,10.36
2023-04-10T10:38:22.978Z,10.60
2023-04-10T10:43:38.049Z,10.74
2023-04-10T10:48:55.360Z,10.87
2023-04-10T10:54:00.315Z,10.95
2023-04-10T10:59:05.460Z,11.09
2023-04-10T11:04:42.026Z,11.25
2023-04-10T11:09:48.640Z,11.38
2023-04-10T11:14:59.268Z,11.40
2023-04-10T11:20:03.609Z,11.39
2023-04-10T11:25:10.301Z,11.40
2023-04-10T11:30:34.968Z,11.40
2023-04-10T11:35:40.132Z,11.53
2023-04-10T11:41:03.768Z,11.57
2023-04-10T11:46:08.731Z,11.68
2023-04-10T11:51:14.542Z,11.82
2023-04-10T11:56:22.176Z,11.93
2023-04-10T12:01:26.818Z,12.09
2023-04-10T12:06:32.209Z,12.24
2023-04-10T12:11:36.629Z,12.37
2023-04-10T12:16:42.054Z,12.52
2023-04-10T12:21:47.604Z,12.51
2023-04-10T12:26:52.057Z,12.56
2023-04-10T12:31:57.623Z,12.71
2023-04-10T12:37:02.412Z,12.78
2023-04-10T12:42:14.393Z,12.98
2023-04-10T12:47:19.009Z,13.11
2023-04-10T12:52:24.775Z,13.15
2023-04-10T12:57:28.957Z,13.22
2023-04-10T13:02:33.583Z,13.28
2023-04-10T13:07:38.813Z,13.44
2023-04-10T13:12:44.182Z,13.57
2023-04-10T13:17:48.820Z,13.68
2023-04-10T13:22:52.615Z,13.73
2023-04-10T13:27:56.595Z,13.83
2023-04-10T13:33:00.688Z,13.78
2023-04-10T13:38:04.491Z,13.63
2023-04-10T13:43:08.521Z,13.53
2023-04-10T13:48:12.409Z,13.56
2023-04-10T13:53:16.296Z,13.71
2023-04-10T13:58:21.406Z,13.83
2023-04-10T14:03:25.354Z,13.88
2023-04-10T14:08:29.514Z,13.95
2023-04-10T14:13:33.491Z,13.98
2023-04-10T14:18:38.180Z,14.03
2023-04-10T14:23:42.937Z,14.04
2023-04-10T14:28:47.131Z,14.05
2023-04-10T14:33:51.400Z,13.93
2023-04-10T14:38:55.656Z,13.84
2023-04-10T14:43:59.966Z,13.82
2023-04-10T14:49:07.238Z,13.72
2023-04-10T14:54:11.372Z,13.55
2023-04-10T14:59:15.566Z,13.29
2023-04-10T15:04:19.847Z,12.83
2023-04-10T15:09:23.888Z,12.47
2023-04-10T15:14:27.926Z,12.20
2023-04-10T15:19:32.052Z,12.06
2023-04-10T15:24:47.085Z,11.95
2023-04-10T15:29:53.792Z,11.70
2023-04-10T15:34:57.684Z,11.43
2023-04-10T15:40:01.832Z,11.33
2023-04-10T15:45:08.044Z,11.35
2023-04-10T15:50:12.303Z,11.34
2023-04-10T15:55:16.826Z,11.28
2023-04-10T16:00:21.857Z,11.18
2023-04-10T16:05:25.973Z,11.11
2023-04-10T16:10:30.733Z,11.07
2023-04-10T16:15:38.896Z,11.06
2023-04-10T16:20:43.745Z,11.11
2023-04-10T16:25:48.194Z,11.19
2023-04-10T16:30:52.860Z,11.28
2023-04-10T16:35:58.256Z,11.33
2023-04-10T16:41:04.221Z,11.34
2023-04-10T16:46:08.613Z,11.30
2023-04-10T16:51:19.131Z,11.22
2023-04-10T16:56:23.684Z,11.15
2023-04-10T17:01:28.017Z,11.15
2023-04-10T17:06:32.367Z,11.14
2023-04-10T17:11:36.507Z,11.16
2023-04-10T17:16:40.962Z,11.15
2023-04-10T17:21:45.318Z,11.11
2023-04-10T17:26:49.371Z,10.96
2023-04-10T17:31:54.086Z,10.85
2023-04-10T17:36:58.368Z,10.79
2023-04-10T17:42:02.689Z,10.73
2023-04-10T17:47:07.400Z,10.67
2023-04-10T17:52:11.791Z,10.64
2023-04-10T17:57:16.210Z,10.50
2023-04-10T18:02:20.479Z,10.31
2023-04-10T18:07:24.618Z,10.10
2023-04-10T18:12:28.749Z,9.96
2023-04-10T18:17:33.044Z,9.86
2023-04-10T18:22:37.574Z,9.74
2023-04-10T18:27:51.415Z,9.55
2023-04-10T18:32:59.527Z,9.33
2023-04-10T18:38:03.839Z,9.04
2023-04-10T18:43:08.047Z,8.80
2023-04-10T18:48:12.077Z,8.65
2023-04-10T18:53:16.186Z,8.54
2023-04-10T18:58:21.353Z,8.45
2023-04-10T19:03:26.383Z,8.49
2023-04-10T19:08:30.606Z,8.57
2023-04-10T19:13:35.501Z,8.64
2023-04-10T19:18:39.992Z,8.66
2023-04-10T19:23:44.173Z,8.56
2023-04-10T19:28:48.350Z,8.32
2023-04-10T19:33:52.966Z,8.03
2023-04-10T19:38:57.241Z,7.83
2023-04-10T19:44:01.733Z,7.69
2023-04-10T19:49:06.532Z,7.66
2023-04-10T19:54:10.709Z,7.60
2023-04-10T19:59:15.067Z,7.40
2023-04-10T20:04:19.792Z,7.23
2023-04-10T20:09:26.530Z,7.03
2023-04-10T20:14:30.556Z,6.94
2023-04-10T20:19:35.548Z,6.87
2023-04-10T20:24:39.886Z,6.83
2023-04-10T20:29:44.036Z,6.70
2023-04-10T20:34:48.470Z,6.53
2023-04-10T20:39:52.491Z,6.42
2023-04-10T20:44:57.688Z,6.45
2023-04-10T20:54:15.977Z,6.55
2023-04-10T20:59:23.469Z,6.49
2023-04-10T21:04:31.210Z,6.27
2023-04-10T21:09:38.759Z,6.08
2023-04-10T21:14:46.117Z,6.10
2023-04-10T21:19:53.518Z,6.07
2023-04-10T21:25:01.223Z,6.05
2023-04-10T21:30:10.966Z,6.00
2023-04-10T21:35:19.198Z,5.97
2023-04-10T21:40:33.210Z,5.87
2023-04-10T21:45:41.423Z,5.74
2023-04-10T21:50:49.249Z,5.68
2023-04-10T21:55:56.755Z,5.70
2023-04-10T22:01:04.425Z,5.54
2023-04-10T22:06:13.035Z,5.48
2023-04-10T22:11:21.107Z,5.46
2023-04-10T22:16:28.613Z,5.37
2023-04-10T22:21:36.605Z,5.30
2023-04-10T22:26:46.386Z,5.39
2023-04-10T22:31:54.087Z,5.53
2023-04-10T22:37:01.484Z,5.58
2023-04-10T22:42:09.033Z,5.47
2023-04-10T22:47:16.800Z,5.50
2023-04-10T22:52:24.547Z,5.56
2023-04-10T22:57:32.021Z,5.63
2023-04-10T23:02:39.853Z,5.53
2023-04-10T23:07:47.438Z,5.22
2023-04-10T23:12:54.839Z,5.04
2023-04-10T23:18:03.796Z,4.84
2023-04-10T23:23:11.516Z,4.72
2023-04-10T23:28:19.519Z,4.68
2023-04-10T23:33:27.930Z,4.66
2023-04-10T23:38:35.494Z,4.59
2023-04-10T23:43:43.231Z,4.44
2023-04-10T23:48:50.914Z,4.45
2023-04-10T23:53:58.501Z,4.60
2023-04-10T23:59:06.601Z,4.71
